sensor_id;sensor_type;location;lat;lon;timestamp;temperature;humidity
8882;DHT22;4477;48.736;9.176;2023-03-13T08:13:07;16.30;67.30
8882;DHT22;4477;48.736;9.176;2023-03-13T10:36:43;11.80;99.90
8882;DHT22;4477;48.736;9.176;2023-03-13T11:58:19;17.70;78.20
8882;DHT22;4477;48.736;9.176;2023-03-13T12:00:53;19.30;69.00
8882;DHT22;4477;48.736;9.176;2023-03-13T12:03:32;19.10;67.80
8882;DHT22;4477;48.736;9.176;2023-03-13T12:06:02;19.10;66.40
8882;DHT22;4477;48.736;9.176;2023-03-13T12:08:35;18.90;67.00
8882;DHT22;4477;48.736;9.176;2023-03-13T12:11:11;18.50;69.00
8882;DHT22;4477;48.736;9.176;2023-03-13T12:13:41;18.60;68.30
8882;DHT22;4477;48.736;9.176;2023-03-13T12:16:12;18.80;68.30
8882;DHT22;4477;48.736;9.176;2023-03-13T12:18:43;19.00;69.20
8882;DHT22;4477;48.736;9.176;2023-03-13T12:21:16;19.50;66.20
8882;DHT22;4477;48.736;9.176;2023-03-13T12:26:18;19.40;66.70
8882;DHT22;4477;48.736;9.176;2023-03-13T12:29:00;20.50;62.60
8882;DHT22;4477;48.736;9.176;2023-03-13T12:31:31;20.90;59.50
8882;DHT22;4477;48.736;9.176;2023-03-13T12:34:08;19.90;61.20
8882;DHT22;4477;48.736;9.176;2023-03-13T12:36:40;20.10;62.20
8882;DHT22;4477;48.736;9.176;2023-03-13T12:39:14;20.60;61.10
8882;DHT22;4477;48.736;9.176;2023-03-13T12:41:47;21.10;59.90
8882;DHT22;4477;48.736;9.176;2023-03-13T12:44:18;21.20;58.40
8882;DHT22;4477;48.736;9.176;2023-03-13T12:52:42;21.70;56.60
8882;DHT22;4477;48.736;9.176;2023-03-13T12:58:17;22.10;54.80
8882;DHT22;4477;48.736;9.176;2023-03-13T13:00:48;22.70;54.10
8882;DHT22;4477;48.736;9.176;2023-03-13T13:26:46;22.50;53.50
8882;DHT22;4477;48.736;9.176;2023-03-13T13:32:29;20.90;56.30
8882;DHT22;4477;48.736;9.176;2023-03-13T13:35:02;21.50;54.70
8882;DHT22;4477;48.736;9.176;2023-03-13T13:37:32;21.00;55.40
8882;DHT22;4477;48.736;9.176;2023-03-13T13:40:16;20.80;56.00
8882;DHT22;4477;48.736;9.176;2023-03-13T13:42:51;20.50;55.80
8882;DHT22;4477;48.736;9.176;2023-03-13T13:45:30;19.90;57.40
8882;DHT22;4477;48.736;9.176;2023-03-13T13:48:24;19.60;57.40
8882;DHT22;4477;48.736;9.176;2023-03-13T13:51:20;19.60;58.40
8882;DHT22;4477;48.736;9.176;2023-03-13T13:53:51;20.00;57.50
8882;DHT22;4477;48.736;9.176;2023-03-13T13:56:38;20.60;56.40
8882;DHT22;4477;48.736;9.176;2023-03-13T13:59:24;21.10;55.40
8882;DHT22;4477;48.736;9.176;2023-03-13T14:02:15;21.80;54.60
8882;DHT22;4477;48.736;9.176;2023-03-13T14:04:47;22.00;52.90
8882;DHT22;4477;48.736;9.176;2023-03-13T14:07:20;21.30;53.80
8882;DHT22;4477;48.736;9.176;2023-03-13T14:09:58;21.00;55.10
8882;DHT22;4477;48.736;9.176;2023-03-13T14:12:30;21.20;54.80
8882;DHT22;4477;48.736;9.176;2023-03-13T14:15:15;21.20;54.00
8882;DHT22;4477;48.736;9.176;2023-03-13T14:17:44;21.10;54.20
8882;DHT22;4477;48.736;9.176;2023-03-13T14:20:32;21.20;54.60
8882;DHT22;4477;48.736;9.176;2023-03-13T14:23:01;20.90;55.00
8882;DHT22;4477;48.736;9.176;2023-03-13T14:25:40;20.70;54.40
8882;DHT22;4477;48.736;9.176;2023-03-13T14:28:15;20.80;54.90
8882;DHT22;4477;48.736;9.176;2023-03-13T14:38:05;21.80;53.40
8882;DHT22;4477;48.736;9.176;2023-03-13T14:40:36;22.90;48.50
8882;DHT22;4477;48.736;9.176;2023-03-13T16:40:13;22.50;50.40
8882;DHT22;4477;48.736;9.176;2023-03-13T17:36:52;17.70;63.80
8882;DHT22;4477;48.736;9.176;2023-03-13T17:39:18;15.20;72.70
8882;DHT22;4477;48.736;9.176;2023-03-13T17:41:47;15.10;73.40
8882;DHT22;4477;48.736;9.176;2023-03-13T17:44:16;15.10;73.80
8882;DHT22;4477;48.736;9.176;2023-03-13T17:46:45;15.20;74.00
8882;DHT22;4477;48.736;9.176;2023-03-13T17:49:14;15.10;73.80
8882;DHT22;4477;48.736;9.176;2023-03-13T17:51:42;15.10;74.40
8882;DHT22;4477;48.736;9.176;2023-03-13T17:54:10;15.00;74.50
8882;DHT22;4477;48.736;9.176;2023-03-13T17:56:38;15.00;74.80
8882;DHT22;4477;48.736;9.176;2023-03-13T17:59:11;14.80;75.40
8882;DHT22;4477;48.736;9.176;2023-03-13T18:01:41;14.70;76.30
8882;DHT22;4477;48.736;9.176;2023-03-13T18:04:10;14.60;77.10
8882;DHT22;4477;48.736;9.176;2023-03-13T18:48:41;14.50;77.10
8882;DHT22;4477;48.736;9.176;2023-03-13T18:51:11;13.40;93.80
8882;DHT22;4477;48.736;9.176;2023-03-13T18:53:38;12.40;99.90
8882;DHT22;4477;48.736;9.176;2023-03-13T18:58:35;11.70;99.90
8882;DHT22;4477;48.736;9.176;2023-03-13T19:01:02;11.20;99.90
8882;DHT22;4477;48.736;9.176;2023-03-13T19:05:56;11.00;99.90
8882;DHT22;4477;48.736;9.176;2023-03-13T19:08:25;10.70;99.90
8882;DHT22;4477;48.736;9.176;2023-03-13T19:10:52;10.70;99.90
8882;DHT22;4477;48.736;9.176;2023-03-13T19:13:20;10.60;99.90
8882;DHT22;4477;48.736;9.176;2023-03-13T19:15:47;10.60;99.90
8882;DHT22;4477;48.736;9.176;2023-03-13T19:18:14;10.60;99.90
8882;DHT22;4477;48.736;9.176;2023-03-13T19:20:41;10.50;99.90
8882;DHT22;4477;48.736;9.176;2023-03-13T19:23:08;10.50;99.90
8882;DHT22;4477;48.736;9.176;2023-03-13T19:25:35;10.60;99.90
8882;DHT22;4477;48.736;9.176;2023-03-13T19:28:04;10.50;99.90
8882;DHT22;4477;48.736;9.176;2023-03-13T19:30:32;10.50;99.90
8882;DHT22;4477;48.736;9.176;2023-03-13T19:32:59;10.50;99.90
8882;DHT22;4477;48.736;9.176;2023-03-13T19:35:26;10.50;99.90
8882;DHT22;4477;48.736;9.176;2023-03-13T19:37:52;10.50;99.90
8882;DHT22;4477;48.736;9.176;2023-03-13T19:40:21;10.50;99.90
8882;DHT22;4477;48.736;9.176;2023-03-13T19:42:48;10.50;99.90
8882;DHT22;4477;48.736;9.176;2023-03-13T19:45:15;10.50;99.90
8882;DHT22;4477;48.736;9.176;2023-03-13T19:47:46;10.50;99.90
8882;DHT22;4477;48.736;9.176;2023-03-13T19:50:18;10.50;99.90
8882;DHT22;4477;48.736;9.176;2023-03-13T19:52:45;10.50;99.90
8882;DHT22;4477;48.736;9.176;2023-03-13T19:55:12;10.50;99.90
8882;DHT22;4477;48.736;9.176;2023-03-13T19:57:40;10.50;99.90
8882;DHT22;4477;48.736;9.176;2023-03-13T20:00:10;10.60;99.90
8882;DHT22;4477;48.736;9.176;2023-03-13T20:02:41;10.70;99.90
8882;DHT22;4477;48.736;9.176;2023-03-13T20:05:10;10.60;99.90
8882;DHT22;4477;48.736;9.176;2023-03-13T20:07:37;10.70;99.90
8882;DHT22;4477;48.736;9.176;2023-03-13T20:10:04;10.70;99.90
8882;DHT22;4477;48.736;9.176;2023-03-13T20:12:31;10.70;99.90
8882;DHT22;4477;48.736;9.176;2023-03-13T20:14:59;10.60;99.90
8882;DHT22;4477;48.736;9.176;2023-03-13T20:17:26;10.60;99.90
8882;DHT22;4477;48.736;9.176;2023-03-13T20:19:53;10.50;99.90
8882;DHT22;4477;48.736;9.176;2023-03-13T20:22:21;10.60;99.90
